McCall, ID

8:53 PM MST on February 09, 2016 (GMT -0700)
McCall | | Change Station
CLOSE
Current Station
Airport
Location: McCall,
Elevation: 5020 ft
Nearby Weather Stations

Elev 5020 ft 44.89 °N, 116.10 °W | Updated 1 hour ago

Clear
Clear
26 °F
Feels Like 22 °F
N
4
Wind Variable Wind from NNE

Today
High -- | Low -- °F
--% Chance of Precip.
Yesterday
High -- | Low -- °F
Precip. -- in
Pressure 30.50 in
Visibility 4.0 miles
Clouds Clear
Windchill 22 °F
Dew Point 24 °F
Humidity 92%
Rainfall 0.00 in
Snow Depth Not available.
7:54 AM 6:03 PM
Waxing Crescent, 3% visible
METAR KMYL 100251Z AUTO 03003KT 4SM BR CLR M03/M04 A3035 RMK AO2 SLP328 T10331044 55008
Pressure 30.50 in
Visibility 4.0 miles
Clouds Clear
Windchill 22 °F
Dew Point 24 °F
Humidity 92%
Rainfall 0.00 in
Snow Depth Not available.
7:54 AM 6:03 PM
Waxing Crescent, 3% visible
METAR KMYL 100251Z AUTO 03003KT 4SM BR CLR M03/M04 A3035 RMK AO2 SLP328 T10331044 55008

10-Day Weather Forecast

Almanac

Astronomy

Feb. 09, 2016 Rise Set
Actual Time
Civil Twilight
Nautical Twilight
Astronomical Twilight
Moon
Length of Visible Light
Length of Day
Tomorrow will be .
, % of the Moon is Illuminated

Today's Extremes

State Highs State Lows

Community

WunderPhotos

Upload Photos

1,891,792 photos uploaded!

WunderBlog® & News

Nearby

Air Quality

  Air Quality AQ Index Pollutant
Not available.

Snow Depth

Station Depth Elevation

Earthquake Activity

City Distance Mag. Time & Date
Minimum magnitude displayed is 2.5.

Coastal Water Temperatures

Place Temperature

Stations

Nearby Weather Stations

Station Location Temp. Windchill Dew Point Humidity Wind Precip. Elev Updated Type
                   

Watches & Warnings

There are currently no watches in effect.